sensor_id;sensor_type;location;lat;lon;timestamp;temperature;humidity
3684;DHT22;1858;48.716;9.648;2023-12-20T00:02:25;6.80;1.00
3684;DHT22;1858;48.716;9.648;2023-12-20T00:05:12;6.90;1.00
3684;DHT22;1858;48.716;9.648;2023-12-20T00:07:58;6.90;1.00
3684;DHT22;1858;48.716;9.648;2023-12-20T00:10:45;6.90;1.00
3684;DHT22;1858;48.716;9.648;2023-12-20T00:13:32;7.00;1.00
3684;DHT22;1858;48.716;9.648;2023-12-20T00:16:18;7.10;1.00
3684;DHT22;1858;48.716;9.648;2023-12-20T00:19:05;7.00;1.00
3684;DHT22;1858;48.716;9.648;2023-12-20T00:21:51;7.00;1.00
3684;DHT22;1858;48.716;9.648;2023-12-20T00:24:38;7.10;1.00
3684;DHT22;1858;48.716;9.648;2023-12-20T00:27:24;7.10;1.00
3684;DHT22;1858;48.716;9.648;2023-12-20T00:30:11;7.20;1.00
3684;DHT22;1858;48.716;9.648;2023-12-20T00:32:57;7.10;1.00
3684;DHT22;1858;48.716;9.648;2023-12-20T00:35:43;7.10;1.00
3684;DHT22;1858;48.716;9.648;2023-12-20T00:38:30;7.10;1.00
3684;DHT22;1858;48.716;9.648;2023-12-20T00:41:16;7.10;1.00
3684;DHT22;1858;48.716;9.648;2023-12-20T00:44:03;7.10;1.00
3684;DHT22;1858;48.716;9.648;2023-12-20T00:46:49;7.20;1.00
3684;DHT22;1858;48.716;9.648;2023-12-20T00:49:36;7.30;1.00
3684;DHT22;1858;48.716;9.648;2023-12-20T00:52:23;7.20;1.00
3684;DHT22;1858;48.716;9.648;2023-12-20T00:55:09;7.30;1.00
3684;DHT22;1858;48.716;9.648;2023-12-20T00:57:55;7.20;1.00
3684;DHT22;1858;48.716;9.648;2023-12-20T01:00:42;7.20;1.00
3684;DHT22;1858;48.716;9.648;2023-12-20T01:03:28;7.20;1.00
3684;DHT22;1858;48.716;9.648;2023-12-20T01:06:14;7.20;17.00
3684;DHT22;1858;48.716;9.648;2023-12-20T01:09:01;7.20;35.30
3684;DHT22;1858;48.716;9.648;2023-12-20T01:11:47;7.30;14.10
3684;DHT22;1858;48.716;9.648;2023-12-20T01:14:33;7.20;20.40
3684;DHT22;1858;48.716;9.648;2023-12-20T01:17:20;7.30;76.10
3684;DHT22;1858;48.716;9.648;2023-12-20T01:20:25;7.30;50.30
3684;DHT22;1858;48.716;9.648;2023-12-20T01:23:12;7.20;92.50
3684;DHT22;1858;48.716;9.648;2023-12-20T01:25:59;7.20;99.90
3684;DHT22;1858;48.716;9.648;2023-12-20T01:28:45;7.20;99.90
3684;DHT22;1858;48.716;9.648;2023-12-20T01:31:31;7.20;99.90
3684;DHT22;1858;48.716;9.648;2023-12-20T01:34:18;7.30;99.90
3684;DHT22;1858;48.716;9.648;2023-12-20T01:37:23;7.20;99.90
3684;DHT22;1858;48.716;9.648;2023-12-20T01:40:11;7.20;99.90
3684;DHT22;1858;48.716;9.648;2023-12-20T01:43:16;7.20;99.90
3684;DHT22;1858;48.716;9.648;2023-12-20T01:46:03;7.20;99.90
3684;DHT22;1858;48.716;9.648;2023-12-20T01:48:49;7.10;99.90
3684;DHT22;1858;48.716;9.648;2023-12-20T01:51:36;7.00;99.90
3684;DHT22;1858;48.716;9.648;2023-12-20T01:54:23;7.00;99.90
3684;DHT22;1858;48.716;9.648;2023-12-20T01:57:10;7.10;99.90
3684;DHT22;1858;48.716;9.648;2023-12-20T01:59:57;7.10;99.90
3684;DHT22;1858;48.716;9.648;2023-12-20T02:02:43;7.10;99.90
3684;DHT22;1858;48.716;9.648;2023-12-20T02:05:32;7.10;1.00
3684;DHT22;1858;48.716;9.648;2023-12-20T02:08:18;7.00;1.00
3684;DHT22;1858;48.716;9.648;2023-12-20T02:11:05;7.10;1.00
3684;DHT22;1858;48.716;9.648;2023-12-20T02:13:51;7.00;1.00
3684;DHT22;1858;48.716;9.648;2023-12-20T02:16:38;7.10;1.00
3684;DHT22;1858;48.716;9.648;2023-12-20T02:19:24;7.10;1.00
3684;DHT22;1858;48.716;9.648;2023-12-20T02:22:12;7.10;1.00
3684;DHT22;1858;48.716;9.648;2023-12-20T02:24:58;7.10;16.50
3684;DHT22;1858;48.716;9.648;2023-12-20T02:27:45;7.20;52.80
3684;DHT22;1858;48.716;9.648;2023-12-20T02:30:32;6.90;99.90
3684;DHT22;1858;48.716;9.648;2023-12-20T02:33:18;7.00;99.90
3684;DHT22;1858;48.716;9.648;2023-12-20T02:36:06;6.90;99.90
3684;DHT22;1858;48.716;9.648;2023-12-20T02:38:52;7.00;99.90
3684;DHT22;1858;48.716;9.648;2023-12-20T02:41:38;7.00;99.90
3684;DHT22;1858;48.716;9.648;2023-12-20T02:44:25;7.10;99.90
3684;DHT22;1858;48.716;9.648;2023-12-20T02:47:11;7.00;99.90
3684;DHT22;1858;48.716;9.648;2023-12-20T02:49:57;7.00;99.90
3684;DHT22;1858;48.716;9.648;2023-12-20T02:52:46;7.10;99.90
3684;DHT22;1858;48.716;9.648;2023-12-20T02:55:33;7.00;99.90
3684;DHT22;1858;48.716;9.648;2023-12-20T02:58:19;7.00;1.00
3684;DHT22;1858;48.716;9.648;2023-12-20T03:01:05;7.00;1.00
3684;DHT22;1858;48.716;9.648;2023-12-20T03:03:52;7.00;1.00
3684;DHT22;1858;48.716;9.648;2023-12-20T03:06:38;7.00;99.90
3684;DHT22;1858;48.716;9.648;2023-12-20T03:09:24;7.00;1.00
3684;DHT22;1858;48.716;9.648;2023-12-20T03:12:11;7.00;1.00
3684;DHT22;1858;48.716;9.648;2023-12-20T03:14:57;7.00;1.00
3684;DHT22;1858;48.716;9.648;2023-12-20T03:17:43;7.00;1.00
3684;DHT22;1858;48.716;9.648;2023-12-20T03:20:29;7.10;1.00
3684;DHT22;1858;48.716;9.648;2023-12-20T03:23:17;7.10;1.00
3684;DHT22;1858;48.716;9.648;2023-12-20T03:26:06;7.10;99.90
3684;DHT22;1858;48.716;9.648;2023-12-20T03:28:51;7.00;1.00
3684;DHT22;1858;48.716;9.648;2023-12-20T03:31:37;7.00;1.00
3684;DHT22;1858;48.716;9.648;2023-12-20T03:34:24;7.10;1.00
3684;DHT22;1858;48.716;9.648;2023-12-20T03:37:10;7.20;1.00
3684;DHT22;1858;48.716;9.648;2023-12-20T03:39:57;7.20;1.00
3684;DHT22;1858;48.716;9.648;2023-12-20T03:42:43;7.20;99.90
3684;DHT22;1858;48.716;9.648;2023-12-20T03:45:29;7.20;99.90
3684;DHT22;1858;48.716;9.648;2023-12-20T03:48:16;7.20;99.90
3684;DHT22;1858;48.716;9.648;2023-12-20T03:51:02;7.20;99.90
3684;DHT22;1858;48.716;9.648;2023-12-20T03:53:49;7.20;99.90
3684;DHT22;1858;48.716;9.648;2023-12-20T03:56:54;7.10;99.90
3684;DHT22;1858;48.716;9.648;2023-12-20T03:59:41;7.00;1.00
3684;DHT22;1858;48.716;9.648;2023-12-20T04:02:27;7.00;1.00
3684;DHT22;1858;48.716;9.648;2023-12-20T04:05:13;7.10;1.00
3684;DHT22;1858;48.716;9.648;2023-12-20T04:08:01;7.00;1.00
3684;DHT22;1858;48.716;9.648;2023-12-20T04:10:48;7.00;1.00
3684;DHT22;1858;48.716;9.648;2023-12-20T04:13:35;7.00;1.00
3684;DHT22;1858;48.716;9.648;2023-12-20T04:16:21;7.00;1.00
3684;DHT22;1858;48.716;9.648;2023-12-20T04:19:07;7.00;1.00
3684;DHT22;1858;48.716;9.648;2023-12-20T04:21:53;7.10;1.00
3684;DHT22;1858;48.716;9.648;2023-12-20T04:24:40;7.10;1.00
3684;DHT22;1858;48.716;9.648;2023-12-20T04:27:27;7.00;1.00
3684;DHT22;1858;48.716;9.648;2023-12-20T04:30:13;7.00;1.00
3684;DHT22;1858;48.716;9.648;2023-12-20T04:33:00;7.00;1.00
3684;DHT22;1858;48.716;9.648;2023-12-20T04:35:46;7.00;1.00
3684;DHT22;1858;48.716;9.648;2023-12-20T04:38:33;7.10;1.00
3684;DHT22;1858;48.716;9.648;2023-12-20T04:41:19;7.10;1.00
3684;DHT22;1858;48.716;9.648;2023-12-20T04:44:06;7.10;1.00
3684;DHT22;1858;48.716;9.648;2023-12-20T04:46:53;7.20;1.00
3684;DHT22;1858;48.716;9.648;2023-12-20T04:49:39;7.20;99.90
3684;DHT22;1858;48.716;9.648;2023-12-20T04:52:44;7.10;99.90
3684;DHT22;1858;48.716;9.648;2023-12-20T04:55:31;7.20;99.90
3684;DHT22;1858;48.716;9.648;2023-12-20T04:58:17;7.10;99.90
3684;DHT22;1858;48.716;9.648;2023-12-20T05:01:05;7.20;1.00
3684;DHT22;1858;48.716;9.648;2023-12-20T05:03:52;7.10;99.90
3684;DHT22;1858;48.716;9.648;2023-12-20T05:06:39;7.00;1.00
3684;DHT22;1858;48.716;9.648;2023-12-20T05:09:44;7.00;1.00
3684;DHT22;1858;48.716;9.648;2023-12-20T05:12:31;7.10;1.00
3684;DHT22;1858;48.716;9.648;2023-12-20T05:15:17;7.10;1.00
3684;DHT22;1858;48.716;9.648;2023-12-20T05:18:04;7.00;99.90
3684;DHT22;1858;48.716;9.648;2023-12-20T05:20:51;7.00;1.00
3684;DHT22;1858;48.716;9.648;2023-12-20T05:23:38;7.10;1.00
3684;DHT22;1858;48.716;9.648;2023-12-20T05:26:24;7.10;1.00
3684;DHT22;1858;48.716;9.648;2023-12-20T05:29:10;7.00;99.90
3684;DHT22;1858;48.716;9.648;2023-12-20T05:31:58;7.00;1.00
3684;DHT22;1858;48.716;9.648;2023-12-20T05:34:45;7.00;1.00
3684;DHT22;1858;48.716;9.648;2023-12-20T05:37:31;7.00;1.00
3684;DHT22;1858;48.716;9.648;2023-12-20T05:40:18;7.00;1.00
3684;DHT22;1858;48.716;9.648;2023-12-20T05:43:04;7.00;1.00
3684;DHT22;1858;48.716;9.648;2023-12-20T05:45:50;7.00;1.00
3684;DHT22;1858;48.716;9.648;2023-12-20T05:48:36;7.00;1.00
3684;DHT22;1858;48.716;9.648;2023-12-20T05:51:22;6.90;1.00
3684;DHT22;1858;48.716;9.648;2023-12-20T05:54:09;6.80;1.00
3684;DHT22;1858;48.716;9.648;2023-12-20T05:56:55;6.90;1.00
3684;DHT22;1858;48.716;9.648;2023-12-20T05:59:41;6.80;1.00
3684;DHT22;1858;48.716;9.648;2023-12-20T06:02:28;6.80;1.00
3684;DHT22;1858;48.716;9.648;2023-12-20T06:05:14;6.70;1.00
3684;DHT22;1858;48.716;9.648;2023-12-20T06:08:01;6.70;21.40
3684;DHT22;1858;48.716;9.648;2023-12-20T06:10:48;6.60;99.90
3684;DHT22;1858;48.716;9.648;2023-12-20T06:13:35;6.70;99.90
3684;DHT22;1858;48.716;9.648;2023-12-20T06:16:20;6.80;99.90
3684;DHT22;1858;48.716;9.648;2023-12-20T06:19:07;6.80;9.40
3684;DHT22;1858;48.716;9.648;2023-12-20T06:21:53;6.80;1.00
3684;DHT22;1858;48.716;9.648;2023-12-20T06:24:39;6.80;1.00
3684;DHT22;1858;48.716;9.648;2023-12-20T06:27:26;6.80;1.00
3684;DHT22;1858;48.716;9.648;2023-12-20T06:30:12;6.80;1.00
3684;DHT22;1858;48.716;9.648;2023-12-20T06:32:59;6.70;1.00
3684;DHT22;1858;48.716;9.648;2023-12-20T06:35:45;6.60;12.80
3684;DHT22;1858;48.716;9.648;2023-12-20T06:38:32;6.70;99.90
3684;DHT22;1858;48.716;9.648;2023-12-20T06:41:18;6.60;99.90
3684;DHT22;1858;48.716;9.648;2023-12-20T06:44:05;6.70;99.90
3684;DHT22;1858;48.716;9.648;2023-12-20T06:46:51;6.70;99.90
3684;DHT22;1858;48.716;9.648;2023-12-20T06:49:38;6.70;1.00
3684;DHT22;1858;48.716;9.648;2023-12-20T06:52:24;6.60;1.00
3684;DHT22;1858;48.716;9.648;2023-12-20T06:55:10;6.60;34.90
3684;DHT22;1858;48.716;9.648;2023-12-20T06:57:56;6.60;12.70
3684;DHT22;1858;48.716;9.648;2023-12-20T07:00:43;6.70;33.10
3684;DHT22;1858;48.716;9.648;2023-12-20T07:03:29;6.80;1.00
3684;DHT22;1858;48.716;9.648;2023-12-20T07:06:15;6.80;1.00
3684;DHT22;1858;48.716;9.648;2023-12-20T07:09:02;6.80;1.00
3684;DHT22;1858;48.716;9.648;2023-12-20T07:11:48;6.90;1.00
3684;DHT22;1858;48.716;9.648;2023-12-20T07:14:34;6.80;1.00
3684;DHT22;1858;48.716;9.648;2023-12-20T07:17:20;6.80;1.00
3684;DHT22;1858;48.716;9.648;2023-12-20T07:20:08;6.80;1.00
3684;DHT22;1858;48.716;9.648;2023-12-20T07:22:56;6.80;1.00
3684;DHT22;1858;48.716;9.648;2023-12-20T07:26:01;6.80;1.00
3684;DHT22;1858;48.716;9.648;2023-12-20T07:28:49;6.80;1.00
3684;DHT22;1858;48.716;9.648;2023-12-20T07:31:35;6.90;1.00
3684;DHT22;1858;48.716;9.648;2023-12-20T07:34:22;6.90;1.00
3684;DHT22;1858;48.716;9.648;2023-12-20T07:37:08;6.90;1.00
3684;DHT22;1858;48.716;9.648;2023-12-20T07:39:56;6.90;1.00
3684;DHT22;1858;48.716;9.648;2023-12-20T07:42:42;6.90;1.00
3684;DHT22;1858;48.716;9.648;2023-12-20T07:45:28;6.90;1.00
3684;DHT22;1858;48.716;9.648;2023-12-20T07:48:15;6.90;1.00
3684;DHT22;1858;48.716;9.648;2023-12-20T07:51:01;6.90;1.00
3684;DHT22;1858;48.716;9.648;2023-12-20T07:53:48;7.00;1.00
3684;DHT22;1858;48.716;9.648;2023-12-20T07:56:34;6.90;99.90
3684;DHT22;1858;48.716;9.648;2023-12-20T07:59:21;6.90;1.00
3684;DHT22;1858;48.716;9.648;2023-12-20T08:02:07;6.90;99.90
3684;DHT22;1858;48.716;9.648;2023-12-20T08:04:53;7.00;99.90
3684;DHT22;1858;48.716;9.648;2023-12-20T08:07:40;7.00;99.90
3684;DHT22;1858;48.716;9.648;2023-12-20T08:10:26;7.00;99.90
3684;DHT22;1858;48.716;9.648;2023-12-20T08:13:14;7.00;99.90
3684;DHT22;1858;48.716;9.648;2023-12-20T08:16:01;7.00;99.90
3684;DHT22;1858;48.716;9.648;2023-12-20T08:18:48;6.90;99.90
3684;DHT22;1858;48.716;9.648;2023-12-20T08:21:34;7.00;1.00
3684;DHT22;1858;48.716;9.648;2023-12-20T08:24:20;6.70;99.90
3684;DHT22;1858;48.716;9.648;2023-12-20T08:27:06;6.80;1.00
3684;DHT22;1858;48.716;9.648;2023-12-20T08:29:54;6.90;1.00
3684;DHT22;1858;48.716;9.648;2023-12-20T08:32:41;6.90;1.00
3684;DHT22;1858;48.716;9.648;2023-12-20T08:35:27;6.90;99.90
3684;DHT22;1858;48.716;9.648;2023-12-20T08:38:13;7.00;99.90
3684;DHT22;1858;48.716;9.648;2023-12-20T08:41:00;7.00;99.90
3684;DHT22;1858;48.716;9.648;2023-12-20T08:43:47;6.90;99.90
3684;DHT22;1858;48.716;9.648;2023-12-20T08:46:33;6.90;99.90
3684;DHT22;1858;48.716;9.648;2023-12-20T08:49:19;7.00;99.90
3684;DHT22;1858;48.716;9.648;2023-12-20T08:52:05;7.00;99.90
3684;DHT22;1858;48.716;9.648;2023-12-20T08:54:53;7.10;99.90
3684;DHT22;1858;48.716;9.648;2023-12-20T08:57:39;7.10;99.90
3684;DHT22;1858;48.716;9.648;2023-12-20T09:00:26;7.20;1.00
3684;DHT22;1858;48.716;9.648;2023-12-20T09:03:13;7.10;1.00
3684;DHT22;1858;48.716;9.648;2023-12-20T09:05:59;7.10;1.00
3684;DHT22;1858;48.716;9.648;2023-12-20T09:08:45;7.20;99.90
3684;DHT22;1858;48.716;9.648;2023-12-20T09:11:31;7.10;99.90
3684;DHT22;1858;48.716;9.648;2023-12-20T09:14:37;7.20;99.90
3684;DHT22;1858;48.716;9.648;2023-12-20T09:17:23;7.20;99.90
3684;DHT22;1858;48.716;9.648;2023-12-20T09:20:10;7.30;99.90
3684;DHT22;1858;48.716;9.648;2023-12-20T09:22:56;7.20;99.90
3684;DHT22;1858;48.716;9.648;2023-12-20T09:25:42;7.30;99.90
3684;DHT22;1858;48.716;9.648;2023-12-20T09:28:29;7.20;99.90
3684;DHT22;1858;48.716;9.648;2023-12-20T09:31:17;7.20;99.90
3684;DHT22;1858;48.716;9.648;2023-12-20T09:34:03;7.30;79.30
3684;DHT22;1858;48.716;9.648;2023-12-20T09:36:49;7.30;1.00
3684;DHT22;1858;48.716;9.648;2023-12-20T09:39:35;7.20;1.00
3684;DHT22;1858;48.716;9.648;2023-12-20T09:42:29;7.20;1.00
3684;DHT22;1858;48.716;9.648;2023-12-20T09:45:15;7.40;1.00
3684;DHT22;1858;48.716;9.648;2023-12-20T09:48:03;7.50;1.00
3684;DHT22;1858;48.716;9.648;2023-12-20T09:50:50;7.70;1.00
3684;DHT22;1858;48.716;9.648;2023-12-20T09:53:37;7.70;1.00
3684;DHT22;1858;48.716;9.648;2023-12-20T09:56:26;7.80;1.00
3684;DHT22;1858;48.716;9.648;2023-12-20T09:59:13;7.90;1.00
3684;DHT22;1858;48.716;9.648;2023-12-20T10:02:01;7.90;1.00
3684;DHT22;1858;48.716;9.648;2023-12-20T10:04:48;7.80;1.00
3684;DHT22;1858;48.716;9.648;2023-12-20T10:07:35;8.00;1.00
3684;DHT22;1858;48.716;9.648;2023-12-20T10:10:22;8.00;1.00
3684;DHT22;1858;48.716;9.648;2023-12-20T10:13:10;8.10;1.00
3684;DHT22;1858;48.716;9.648;2023-12-20T10:15:57;8.00;1.00
3684;DHT22;1858;48.716;9.648;2023-12-20T10:18:43;8.00;1.00
3684;DHT22;1858;48.716;9.648;2023-12-20T10:21:32;7.90;1.00
3684;DHT22;1858;48.716;9.648;2023-12-20T10:24:18;7.80;1.00
3684;DHT22;1858;48.716;9.648;2023-12-20T10:27:06;7.80;1.00
3684;DHT22;1858;48.716;9.648;2023-12-20T10:29:53;7.70;1.00
3684;DHT22;1858;48.716;9.648;2023-12-20T10:32:39;7.70;1.00
3684;DHT22;1858;48.716;9.648;2023-12-20T10:35:28;7.70;1.00
3684;DHT22;1858;48.716;9.648;2023-12-20T10:38:15;7.40;1.00
3684;DHT22;1858;48.716;9.648;2023-12-20T10:41:01;7.40;1.00
3684;DHT22;1858;48.716;9.648;2023-12-20T10:43:50;7.20;1.00
3684;DHT22;1858;48.716;9.648;2023-12-20T10:46:37;7.10;1.00
3684;DHT22;1858;48.716;9.648;2023-12-20T10:49:26;7.00;1.00
3684;DHT22;1858;48.716;9.648;2023-12-20T10:52:14;7.10;17.40
3684;DHT22;1858;48.716;9.648;2023-12-20T10:55:00;7.30;1.00
3684;DHT22;1858;48.716;9.648;2023-12-20T10:57:49;7.30;1.00
3684;DHT22;1858;48.716;9.648;2023-12-20T11:00:39;7.30;1.00
3684;DHT22;1858;48.716;9.648;2023-12-20T11:03:32;7.40;1.00
3684;DHT22;1858;48.716;9.648;2023-12-20T11:06:35;7.70;1.00
3684;DHT22;1858;48.716;9.648;2023-12-20T11:13:53;7.90;99.90
3684;DHT22;1858;48.716;9.648;2023-12-20T11:16:06;7.80;99.90
3684;DHT22;1858;48.716;9.648;2023-12-20T11:18:53;8.00;99.90
3684;DHT22;1858;48.716;9.648;2023-12-20T11:21:40;8.20;99.90
3684;DHT22;1858;48.716;9.648;2023-12-20T11:24:27;8.50;99.90
3684;DHT22;1858;48.716;9.648;2023-12-20T11:27:14;8.80;99.90
3684;DHT22;1858;48.716;9.648;2023-12-20T11:30:03;8.80;99.90
3684;DHT22;1858;48.716;9.648;2023-12-20T11:32:51;8.70;99.90
3684;DHT22;1858;48.716;9.648;2023-12-20T11:35:57;8.70;99.90
3684;DHT22;1858;48.716;9.648;2023-12-20T11:38:57;8.70;99.90
3684;DHT22;1858;48.716;9.648;2023-12-20T11:41:45;8.80;99.90
3684;DHT22;1858;48.716;9.648;2023-12-20T11:44:31;8.70;99.90
3684;DHT22;1858;48.716;9.648;2023-12-20T11:47:36;8.70;99.90
3684;DHT22;1858;48.716;9.648;2023-12-20T11:50:24;8.60;99.90
3684;DHT22;1858;48.716;9.648;2023-12-20T11:53:11;8.60;99.90
3684;DHT22;1858;48.716;9.648;2023-12-20T11:55:57;8.50;99.90
3684;DHT22;1858;48.716;9.648;2023-12-20T11:58:44;8.40;99.90
3684;DHT22;1858;48.716;9.648;2023-12-20T12:01:32;8.40;99.90
3684;DHT22;1858;48.716;9.648;2023-12-20T12:04:18;8.40;99.90
3684;DHT22;1858;48.716;9.648;2023-12-20T12:07:04;8.40;99.90
3684;DHT22;1858;48.716;9.648;2023-12-20T12:09:51;8.40;99.90
3684;DHT22;1858;48.716;9.648;2023-12-20T12:12:37;8.40;99.90
3684;DHT22;1858;48.716;9.648;2023-12-20T12:15:25;8.30;99.90
3684;DHT22;1858;48.716;9.648;2023-12-20T12:18:18;8.30;99.90
3684;DHT22;1858;48.716;9.648;2023-12-20T12:21:20;8.20;99.90
3684;DHT22;1858;48.716;9.648;2023-12-20T12:24:08;8.10;99.90
3684;DHT22;1858;48.716;9.648;2023-12-20T12:26:57;8.00;99.90
3684;DHT22;1858;48.716;9.648;2023-12-20T12:30:07;7.90;99.90
3684;DHT22;1858;48.716;9.648;2023-12-20T12:32:33;7.80;99.90
3684;DHT22;1858;48.716;9.648;2023-12-20T12:35:20;7.80;99.90
3684;DHT22;1858;48.716;9.648;2023-12-20T12:38:07;7.70;99.90
3684;DHT22;1858;48.716;9.648;2023-12-20T12:40:54;7.70;99.90
3684;DHT22;1858;48.716;9.648;2023-12-20T12:44:00;7.70;99.90
3684;DHT22;1858;48.716;9.648;2023-12-20T12:46:47;7.70;99.90
3684;DHT22;1858;48.716;9.648;2023-12-20T12:49:35;7.70;99.90
3684;DHT22;1858;48.716;9.648;2023-12-20T12:52:22;7.70;99.90
3684;DHT22;1858;48.716;9.648;2023-12-20T12:55:08;7.60;99.90
3684;DHT22;1858;48.716;9.648;2023-12-20T12:57:55;7.50;99.90
3684;DHT22;1858;48.716;9.648;2023-12-20T13:00:41;7.60;99.90
3684;DHT22;1858;48.716;9.648;2023-12-20T13:03:27;7.50;99.90
3684;DHT22;1858;48.716;9.648;2023-12-20T13:06:13;7.50;99.90
3684;DHT22;1858;48.716;9.648;2023-12-20T13:09:00;7.60;99.90
3684;DHT22;1858;48.716;9.648;2023-12-20T13:11:46;7.40;99.90
3684;DHT22;1858;48.716;9.648;2023-12-20T13:14:34;7.30;99.90
3684;DHT22;1858;48.716;9.648;2023-12-20T13:17:22;7.40;99.90
3684;DHT22;1858;48.716;9.648;2023-12-20T13:20:09;7.50;99.90
3684;DHT22;1858;48.716;9.648;2023-12-20T13:23:14;7.50;99.90
3684;DHT22;1858;48.716;9.648;2023-12-20T13:26:03;7.60;99.90
3684;DHT22;1858;48.716;9.648;2023-12-20T13:28:49;7.60;99.90
3684;DHT22;1858;48.716;9.648;2023-12-20T13:31:35;7.60;99.90
3684;DHT22;1858;48.716;9.648;2023-12-20T13:34:23;7.70;99.90
3684;DHT22;1858;48.716;9.648;2023-12-20T13:37:10;7.50;99.90
3684;DHT22;1858;48.716;9.648;2023-12-20T13:39:56;7.50;99.90
3684;DHT22;1858;48.716;9.648;2023-12-20T13:42:42;7.50;99.90
3684;DHT22;1858;48.716;9.648;2023-12-20T13:45:28;7.50;99.90
3684;DHT22;1858;48.716;9.648;2023-12-20T13:48:15;7.50;99.90
3684;DHT22;1858;48.716;9.648;2023-12-20T13:51:01;7.50;99.90
3684;DHT22;1858;48.716;9.648;2023-12-20T13:53:48;7.50;99.90
3684;DHT22;1858;48.716;9.648;2023-12-20T13:56:35;7.40;99.90
3684;DHT22;1858;48.716;9.648;2023-12-20T13:59:21;7.50;99.90
3684;DHT22;1858;48.716;9.648;2023-12-20T14:02:07;7.50;99.90
3684;DHT22;1858;48.716;9.648;2023-12-20T14:04:53;7.50;99.90
3684;DHT22;1858;48.716;9.648;2023-12-20T14:07:40;7.50;99.90
3684;DHT22;1858;48.716;9.648;2023-12-20T14:10:45;7.40;99.90
3684;DHT22;1858;48.716;9.648;2023-12-20T14:13:33;7.40;99.90
3684;DHT22;1858;48.716;9.648;2023-12-20T14:16:19;7.40;99.90
3684;DHT22;1858;48.716;9.648;2023-12-20T14:19:06;7.40;99.90
3684;DHT22;1858;48.716;9.648;2023-12-20T14:21:54;7.40;99.90
3684;DHT22;1858;48.716;9.648;2023-12-20T14:24:40;7.40;99.90
3684;DHT22;1858;48.716;9.648;2023-12-20T14:27:27;7.30;99.90
3684;DHT22;1858;48.716;9.648;2023-12-20T14:30:14;7.30;99.90
3684;DHT22;1858;48.716;9.648;2023-12-20T14:33:02;7.30;99.90
3684;DHT22;1858;48.716;9.648;2023-12-20T14:35:49;7.40;99.90
3684;DHT22;1858;48.716;9.648;2023-12-20T14:38:36;7.30;99.90
3684;DHT22;1858;48.716;9.648;2023-12-20T14:41:22;7.10;99.90
3684;DHT22;1858;48.716;9.648;2023-12-20T14:44:09;7.20;99.90
3684;DHT22;1858;48.716;9.648;2023-12-20T14:46:55;7.10;99.90
3684;DHT22;1858;48.716;9.648;2023-12-20T14:49:42;7.10;99.90
3684;DHT22;1858;48.716;9.648;2023-12-20T14:52:28;7.00;99.90
3684;DHT22;1858;48.716;9.648;2023-12-20T14:55:15;7.00;99.90
3684;DHT22;1858;48.716;9.648;2023-12-20T14:58:02;7.00;99.90
3684;DHT22;1858;48.716;9.648;2023-12-20T15:00:48;7.10;99.90
3684;DHT22;1858;48.716;9.648;2023-12-20T15:03:35;7.00;99.90
3684;DHT22;1858;48.716;9.648;2023-12-20T15:06:21;7.00;99.90
3684;DHT22;1858;48.716;9.648;2023-12-20T15:09:08;7.00;99.90
3684;DHT22;1858;48.716;9.648;2023-12-20T15:11:54;6.90;99.90
3684;DHT22;1858;48.716;9.648;2023-12-20T15:14:41;6.90;99.90
3684;DHT22;1858;48.716;9.648;2023-12-20T15:17:27;6.90;99.90
3684;DHT22;1858;48.716;9.648;2023-12-20T15:20:15;6.90;99.90
3684;DHT22;1858;48.716;9.648;2023-12-20T15:23:01;6.90;99.90
3684;DHT22;1858;48.716;9.648;2023-12-20T15:25:52;6.80;99.90
3684;DHT22;1858;48.716;9.648;2023-12-20T15:28:38;6.80;99.90
3684;DHT22;1858;48.716;9.648;2023-12-20T15:31:24;6.90;99.90
3684;DHT22;1858;48.716;9.648;2023-12-20T15:34:12;6.90;99.90
3684;DHT22;1858;48.716;9.648;2023-12-20T15:36:59;6.80;99.90
3684;DHT22;1858;48.716;9.648;2023-12-20T15:39:45;6.80;99.90
3684;DHT22;1858;48.716;9.648;2023-12-20T15:42:31;6.80;99.90
3684;DHT22;1858;48.716;9.648;2023-12-20T15:45:19;6.80;99.90
3684;DHT22;1858;48.716;9.648;2023-12-20T15:48:06;6.70;99.90
3684;DHT22;1858;48.716;9.648;2023-12-20T15:50:53;6.70;99.90
3684;DHT22;1858;48.716;9.648;2023-12-20T15:53:39;6.70;99.90
3684;DHT22;1858;48.716;9.648;2023-12-20T15:56:26;6.60;99.90
3684;DHT22;1858;48.716;9.648;2023-12-20T15:59:13;6.50;99.90
3684;DHT22;1858;48.716;9.648;2023-12-20T16:01:59;6.50;99.90
3684;DHT22;1858;48.716;9.648;2023-12-20T16:04:45;6.40;99.90
3684;DHT22;1858;48.716;9.648;2023-12-20T16:07:32;6.40;99.90
3684;DHT22;1858;48.716;9.648;2023-12-20T16:10:18;6.40;99.90
3684;DHT22;1858;48.716;9.648;2023-12-20T16:13:23;6.40;99.90
3684;DHT22;1858;48.716;9.648;2023-12-20T16:16:10;6.40;99.90
3684;DHT22;1858;48.716;9.648;2023-12-20T16:18:56;6.40;99.90
3684;DHT22;1858;48.716;9.648;2023-12-20T16:21:43;6.40;99.90
3684;DHT22;1858;48.716;9.648;2023-12-20T16:24:30;6.30;99.90
3684;DHT22;1858;48.716;9.648;2023-12-20T16:27:16;6.20;99.90
3684;DHT22;1858;48.716;9.648;2023-12-20T16:30:04;6.30;99.90
3684;DHT22;1858;48.716;9.648;2023-12-20T16:32:51;6.30;99.90
3684;DHT22;1858;48.716;9.648;2023-12-20T16:35:39;6.30;99.90
3684;DHT22;1858;48.716;9.648;2023-12-20T16:38:25;6.30;99.90
3684;DHT22;1858;48.716;9.648;2023-12-20T16:41:12;6.30;99.90
3684;DHT22;1858;48.716;9.648;2023-12-20T16:43:58;6.30;99.90
3684;DHT22;1858;48.716;9.648;2023-12-20T16:46:44;6.30;99.90
3684;DHT22;1858;48.716;9.648;2023-12-20T16:49:31;6.10;99.90
3684;DHT22;1858;48.716;9.648;2023-12-20T16:52:18;6.00;99.90
3684;DHT22;1858;48.716;9.648;2023-12-20T16:55:05;6.00;99.90
3684;DHT22;1858;48.716;9.648;2023-12-20T16:57:51;5.90;1.00
3684;DHT22;1858;48.716;9.648;2023-12-20T17:00:38;5.90;1.00
3684;DHT22;1858;48.716;9.648;2023-12-20T17:03:26;5.90;1.00
3684;DHT22;1858;48.716;9.648;2023-12-20T17:06:13;5.90;1.00
3684;DHT22;1858;48.716;9.648;2023-12-20T17:08:59;6.00;1.00
3684;DHT22;1858;48.716;9.648;2023-12-20T17:11:45;6.00;1.00
3684;DHT22;1858;48.716;9.648;2023-12-20T17:14:32;5.90;1.00
3684;DHT22;1858;48.716;9.648;2023-12-20T17:17:18;5.80;1.00
3684;DHT22;1858;48.716;9.648;2023-12-20T17:23:12;5.70;1.00
3684;DHT22;1858;48.716;9.648;2023-12-20T17:25:58;5.60;1.00
3684;DHT22;1858;48.716;9.648;2023-12-20T17:28:45;5.60;1.00
3684;DHT22;1858;48.716;9.648;2023-12-20T17:31:31;5.60;1.00
3684;DHT22;1858;48.716;9.648;2023-12-20T17:34:18;5.60;1.00
3684;DHT22;1858;48.716;9.648;2023-12-20T17:37:04;5.60;1.00
3684;DHT22;1858;48.716;9.648;2023-12-20T17:39:51;5.50;1.00
3684;DHT22;1858;48.716;9.648;2023-12-20T17:42:37;5.50;1.00
3684;DHT22;1858;48.716;9.648;2023-12-20T17:45:23;5.50;1.00
3684;DHT22;1858;48.716;9.648;2023-12-20T17:48:10;5.40;1.00
3684;DHT22;1858;48.716;9.648;2023-12-20T17:50:57;5.40;1.00
3684;DHT22;1858;48.716;9.648;2023-12-20T17:53:43;5.50;1.00
3684;DHT22;1858;48.716;9.648;2023-12-20T17:56:30;5.50;1.00
3684;DHT22;1858;48.716;9.648;2023-12-20T17:59:17;5.60;1.00
3684;DHT22;1858;48.716;9.648;2023-12-20T18:02:03;5.50;1.00
3684;DHT22;1858;48.716;9.648;2023-12-20T18:04:50;5.60;1.00
3684;DHT22;1858;48.716;9.648;2023-12-20T18:07:36;5.70;1.00
3684;DHT22;1858;48.716;9.648;2023-12-20T18:10:23;5.60;1.00
3684;DHT22;1858;48.716;9.648;2023-12-20T18:13:11;5.70;1.00
3684;DHT22;1858;48.716;9.648;2023-12-20T18:15:57;5.70;1.00
3684;DHT22;1858;48.716;9.648;2023-12-20T18:18:44;5.60;1.00
3684;DHT22;1858;48.716;9.648;2023-12-20T18:21:30;5.60;1.00
3684;DHT22;1858;48.716;9.648;2023-12-20T18:24:17;5.60;1.00
3684;DHT22;1858;48.716;9.648;2023-12-20T18:27:03;5.50;1.00
3684;DHT22;1858;48.716;9.648;2023-12-20T18:29:50;5.50;1.00
3684;DHT22;1858;48.716;9.648;2023-12-20T18:32:36;5.60;1.00
3684;DHT22;1858;48.716;9.648;2023-12-20T18:35:22;5.60;1.00
3684;DHT22;1858;48.716;9.648;2023-12-20T18:38:11;5.60;1.00
3684;DHT22;1858;48.716;9.648;2023-12-20T18:40:58;5.60;1.00
3684;DHT22;1858;48.716;9.648;2023-12-20T18:43:45;5.60;1.00
3684;DHT22;1858;48.716;9.648;2023-12-20T18:46:31;5.50;1.00
3684;DHT22;1858;48.716;9.648;2023-12-20T18:49:18;5.60;1.00